sensor_id;sensor_type;location;lat;lon;timestamp;P1;durP1;ratioP1;P2;durP2;ratioP2
60653;SDS011;46476;53.614;10.048;2022-07-23T00:00:46;3.53;;;0.80;;
60653;SDS011;46476;53.614;10.048;2022-07-23T00:03:12;1.80;;;0.50;;
60653;SDS011;46476;53.614;10.048;2022-07-23T00:05:37;3.13;;;0.70;;
60653;SDS011;46476;53.614;10.048;2022-07-23T00:08:03;1.02;;;0.60;;
60653;SDS011;46476;53.614;10.048;2022-07-23T00:10:29;2.28;;;0.50;;
60653;SDS011;46476;53.614;10.048;2022-07-23T00:12:55;2.47;;;0.60;;
60653;SDS011;46476;53.614;10.048;2022-07-23T00:15:20;2.45;;;0.77;;
60653;SDS011;46476;53.614;10.048;2022-07-23T00:17:45;2.55;;;0.60;;
60653;SDS011;46476;53.614;10.048;2022-07-23T00:20:11;3.30;;;0.70;;
60653;SDS011;46476;53.614;10.048;2022-07-23T00:22:36;1.80;;;0.70;;
60653;SDS011;46476;53.614;10.048;2022-07-23T00:25:02;2.60;;;0.70;;
60653;SDS011;46476;53.614;10.048;2022-07-23T00:27:27;2.17;;;0.77;;
60653;SDS011;46476;53.614;10.048;2022-07-23T00:29:52;1.08;;;0.40;;
60653;SDS011;46476;53.614;10.048;2022-07-23T00:32:18;1.55;;;0.60;;
60653;SDS011;46476;53.614;10.048;2022-07-23T00:34:43;0.90;;;0.45;;
60653;SDS011;46476;53.614;10.048;2022-07-23T00:37:08;1.42;;;0.50;;
60653;SDS011;46476;53.614;10.048;2022-07-23T00:39:34;1.75;;;0.60;;
60653;SDS011;46476;53.614;10.048;2022-07-23T00:41:59;0.80;;;0.50;;
60653;SDS011;46476;53.614;10.048;2022-07-23T00:44:26;0.40;;;0.40;;
60653;SDS011;46476;53.614;10.048;2022-07-23T00:46:54;2.08;;;0.60;;
60653;SDS011;46476;53.614;10.048;2022-07-23T00:49:21;1.45;;;0.85;;
60653;SDS011;46476;53.614;10.048;2022-07-23T00:51:51;3.13;;;0.63;;
60653;SDS011;46476;53.614;10.048;2022-07-23T00:54:17;1.65;;;0.30;;
60653;SDS011;46476;53.614;10.048;2022-07-23T00:56:44;1.33;;;0.47;;
60653;SDS011;46476;53.614;10.048;2022-07-23T00:59:10;2.08;;;0.52;;
60653;SDS011;46476;53.614;10.048;2022-07-23T01:01:36;1.33;;;0.50;;
60653;SDS011;46476;53.614;10.048;2022-07-23T01:04:02;1.73;;;0.60;;
60653;SDS011;46476;53.614;10.048;2022-07-23T01:06:27;1.70;;;0.40;;
60653;SDS011;46476;53.614;10.048;2022-07-23T01:08:53;1.30;;;0.32;;
60653;SDS011;46476;53.614;10.048;2022-07-23T01:11:20;1.95;;;0.40;;
60653;SDS011;46476;53.614;10.048;2022-07-23T01:13:46;1.45;;;0.55;;
60653;SDS011;46476;53.614;10.048;2022-07-23T01:16:12;3.05;;;0.52;;
60653;SDS011;46476;53.614;10.048;2022-07-23T01:18:37;0.80;;;0.30;;
60653;SDS011;46476;53.614;10.048;2022-07-23T01:21:03;1.23;;;0.50;;
60653;SDS011;46476;53.614;10.048;2022-07-23T01:23:29;0.77;;;0.22;;
60653;SDS011;46476;53.614;10.048;2022-07-23T01:25:54;1.38;;;0.40;;
60653;SDS011;46476;53.614;10.048;2022-07-23T01:28:20;1.40;;;0.50;;
60653;SDS011;46476;53.614;10.048;2022-07-23T01:30:46;2.10;;;0.70;;
60653;SDS011;46476;53.614;10.048;2022-07-23T01:33:12;1.25;;;0.40;;
60653;SDS011;46476;53.614;10.048;2022-07-23T01:35:37;2.05;;;0.82;;
60653;SDS011;46476;53.614;10.048;2022-07-23T01:38:03;2.05;;;0.60;;
60653;SDS011;46476;53.614;10.048;2022-07-23T01:40:28;0.85;;;0.50;;
60653;SDS011;46476;53.614;10.048;2022-07-23T01:42:53;2.25;;;0.55;;
60653;SDS011;46476;53.614;10.048;2022-07-23T01:45:19;2.20;;;0.40;;
60653;SDS011;46476;53.614;10.048;2022-07-23T01:47:44;2.25;;;0.88;;
60653;SDS011;46476;53.614;10.048;2022-07-23T01:50:10;1.42;;;0.47;;
60653;SDS011;46476;53.614;10.048;2022-07-23T01:52:36;1.55;;;0.50;;
60653;SDS011;46476;53.614;10.048;2022-07-23T01:55:01;3.40;;;0.50;;
60653;SDS011;46476;53.614;10.048;2022-07-23T01:57:27;2.13;;;0.57;;
60653;SDS011;46476;53.614;10.048;2022-07-23T01:59:52;1.73;;;0.50;;
60653;SDS011;46476;53.614;10.048;2022-07-23T02:02:18;1.05;;;0.40;;
60653;SDS011;46476;53.614;10.048;2022-07-23T02:04:43;1.00;;;0.52;;
60653;SDS011;46476;53.614;10.048;2022-07-23T02:07:08;1.15;;;0.38;;
60653;SDS011;46476;53.614;10.048;2022-07-23T02:09:34;1.38;;;0.38;;
60653;SDS011;46476;53.614;10.048;2022-07-23T02:12:00;0.98;;;0.25;;
60653;SDS011;46476;53.614;10.048;2022-07-23T02:14:25;1.15;;;0.50;;
60653;SDS011;46476;53.614;10.048;2022-07-23T02:16:51;0.60;;;0.30;;
60653;SDS011;46476;53.614;10.048;2022-07-23T02:19:16;2.30;;;0.40;;
60653;SDS011;46476;53.614;10.048;2022-07-23T02:21:42;2.85;;;0.30;;
60653;SDS011;46476;53.614;10.048;2022-07-23T02:24:07;1.20;;;0.50;;
60653;SDS011;46476;53.614;10.048;2022-07-23T02:26:33;2.75;;;0.40;;
60653;SDS011;46476;53.614;10.048;2022-07-23T02:28:59;4.03;;;0.60;;
60653;SDS011;46476;53.614;10.048;2022-07-23T02:31:26;1.17;;;0.40;;
60653;SDS011;46476;53.614;10.048;2022-07-23T02:33:51;2.92;;;0.57;;
60653;SDS011;46476;53.614;10.048;2022-07-23T02:36:17;1.15;;;0.47;;
60653;SDS011;46476;53.614;10.048;2022-07-23T02:38:42;2.95;;;0.50;;
60653;SDS011;46476;53.614;10.048;2022-07-23T02:41:07;2.55;;;0.60;;
60653;SDS011;46476;53.614;10.048;2022-07-23T02:43:33;3.30;;;0.45;;
60653;SDS011;46476;53.614;10.048;2022-07-23T02:45:58;1.05;;;0.35;;
60653;SDS011;46476;53.614;10.048;2022-07-23T02:48:24;1.45;;;0.40;;
60653;SDS011;46476;53.614;10.048;2022-07-23T02:50:49;0.30;;;0.30;;
60653;SDS011;46476;53.614;10.048;2022-07-23T02:53:14;2.15;;;0.45;;
60653;SDS011;46476;53.614;10.048;2022-07-23T02:55:40;1.10;;;0.45;;
60653;SDS011;46476;53.614;10.048;2022-07-23T02:58:05;0.90;;;0.40;;
60653;SDS011;46476;53.614;10.048;2022-07-23T03:00:30;3.55;;;0.50;;
60653;SDS011;46476;53.614;10.048;2022-07-23T03:02:56;1.05;;;0.60;;
60653;SDS011;46476;53.614;10.048;2022-07-23T03:05:21;1.63;;;0.50;;
60653;SDS011;46476;53.614;10.048;2022-07-23T03:07:46;4.00;;;0.50;;
60653;SDS011;46476;53.614;10.048;2022-07-23T03:10:11;0.52;;;0.32;;
60653;SDS011;46476;53.614;10.048;2022-07-23T03:12:37;1.83;;;0.50;;
60653;SDS011;46476;53.614;10.048;2022-07-23T03:15:02;1.98;;;0.65;;
60653;SDS011;46476;53.614;10.048;2022-07-23T03:17:28;2.55;;;0.73;;
60653;SDS011;46476;53.614;10.048;2022-07-23T03:19:53;1.65;;;0.60;;
60653;SDS011;46476;53.614;10.048;2022-07-23T03:22:19;1.77;;;0.60;;
60653;SDS011;46476;53.614;10.048;2022-07-23T03:24:44;1.88;;;0.52;;
60653;SDS011;46476;53.614;10.048;2022-07-23T03:27:18;1.33;;;0.50;;
60653;SDS011;46476;53.614;10.048;2022-07-23T03:29:44;2.95;;;0.50;;
60653;SDS011;46476;53.614;10.048;2022-07-23T03:32:09;2.00;;;0.50;;
60653;SDS011;46476;53.614;10.048;2022-07-23T03:34:35;2.75;;;0.60;;
60653;SDS011;46476;53.614;10.048;2022-07-23T03:37:01;2.22;;;0.90;;
60653;SDS011;46476;53.614;10.048;2022-07-23T03:39:26;1.45;;;0.40;;
60653;SDS011;46476;53.614;10.048;2022-07-23T03:41:52;2.47;;;0.50;;
60653;SDS011;46476;53.614;10.048;2022-07-23T03:44:17;1.13;;;0.40;;
60653;SDS011;46476;53.614;10.048;2022-07-23T03:46:43;0.90;;;0.50;;
60653;SDS011;46476;53.614;10.048;2022-07-23T03:49:08;1.67;;;0.50;;
60653;SDS011;46476;53.614;10.048;2022-07-23T03:51:34;1.10;;;0.40;;
60653;SDS011;46476;53.614;10.048;2022-07-23T03:53:59;2.13;;;0.47;;
60653;SDS011;46476;53.614;10.048;2022-07-23T03:56:24;1.27;;;0.50;;
60653;SDS011;46476;53.614;10.048;2022-07-23T03:58:51;0.98;;;0.40;;
60653;SDS011;46476;53.614;10.048;2022-07-23T04:01:16;1.42;;;0.50;;
60653;SDS011;46476;53.614;10.048;2022-07-23T04:03:41;1.33;;;0.40;;
60653;SDS011;46476;53.614;10.048;2022-07-23T04:06:07;2.15;;;0.60;;
60653;SDS011;46476;53.614;10.048;2022-07-23T04:08:32;1.38;;;0.60;;
60653;SDS011;46476;53.614;10.048;2022-07-23T04:10:58;1.05;;;0.60;;
60653;SDS011;46476;53.614;10.048;2022-07-23T04:13:23;3.45;;;0.70;;
60653;SDS011;46476;53.614;10.048;2022-07-23T04:15:49;1.80;;;0.80;;
60653;SDS011;46476;53.614;10.048;2022-07-23T04:18:15;1.40;;;0.70;;
60653;SDS011;46476;53.614;10.048;2022-07-23T04:20:42;1.13;;;0.50;;
60653;SDS011;46476;53.614;10.048;2022-07-23T04:23:08;1.33;;;0.50;;
60653;SDS011;46476;53.614;10.048;2022-07-23T04:25:34;2.13;;;0.50;;
60653;SDS011;46476;53.614;10.048;2022-07-23T04:28:00;2.05;;;0.50;;
60653;SDS011;46476;53.614;10.048;2022-07-23T04:30:25;1.27;;;0.43;;
60653;SDS011;46476;53.614;10.048;2022-07-23T04:32:51;1.50;;;0.50;;
60653;SDS011;46476;53.614;10.048;2022-07-23T04:35:16;2.45;;;0.88;;
60653;SDS011;46476;53.614;10.048;2022-07-23T04:37:41;1.70;;;0.50;;
60653;SDS011;46476;53.614;10.048;2022-07-23T04:40:07;3.05;;;0.70;;
60653;SDS011;46476;53.614;10.048;2022-07-23T04:42:32;2.13;;;0.55;;
60653;SDS011;46476;53.614;10.048;2022-07-23T04:44:58;2.78;;;0.50;;
60653;SDS011;46476;53.614;10.048;2022-07-23T04:47:23;1.88;;;0.60;;
60653;SDS011;46476;53.614;10.048;2022-07-23T04:49:48;1.33;;;0.50;;
60653;SDS011;46476;53.614;10.048;2022-07-23T04:52:14;2.47;;;0.60;;
60653;SDS011;46476;53.614;10.048;2022-07-23T04:54:40;1.40;;;0.70;;
60653;SDS011;46476;53.614;10.048;2022-07-23T04:57:05;1.45;;;0.73;;
60653;SDS011;46476;53.614;10.048;2022-07-23T04:59:31;2.40;;;0.73;;
60653;SDS011;46476;53.614;10.048;2022-07-23T05:01:56;1.35;;;0.60;;
60653;SDS011;46476;53.614;10.048;2022-07-23T05:04:21;1.77;;;0.80;;
60653;SDS011;46476;53.614;10.048;2022-07-23T05:06:47;3.15;;;0.60;;
60653;SDS011;46476;53.614;10.048;2022-07-23T05:09:12;1.33;;;0.43;;
60653;SDS011;46476;53.614;10.048;2022-07-23T05:11:37;1.75;;;0.65;;
60653;SDS011;46476;53.614;10.048;2022-07-23T05:14:03;3.15;;;0.60;;
60653;SDS011;46476;53.614;10.048;2022-07-23T05:16:28;2.20;;;0.68;;
60653;SDS011;46476;53.614;10.048;2022-07-23T05:18:54;1.55;;;0.60;;
60653;SDS011;46476;53.614;10.048;2022-07-23T05:21:19;2.22;;;0.80;;
60653;SDS011;46476;53.614;10.048;2022-07-23T05:23:44;1.63;;;0.70;;
60653;SDS011;46476;53.614;10.048;2022-07-23T05:26:10;1.55;;;0.60;;
60653;SDS011;46476;53.614;10.048;2022-07-23T05:28:35;1.88;;;0.95;;
60653;SDS011;46476;53.614;10.048;2022-07-23T05:31:00;1.67;;;0.80;;
60653;SDS011;46476;53.614;10.048;2022-07-23T05:33:26;0.98;;;0.73;;
60653;SDS011;46476;53.614;10.048;2022-07-23T05:35:51;1.35;;;0.70;;
60653;SDS011;46476;53.614;10.048;2022-07-23T05:38:16;1.83;;;0.50;;
60653;SDS011;46476;53.614;10.048;2022-07-23T05:40:42;0.70;;;0.40;;
60653;SDS011;46476;53.614;10.048;2022-07-23T05:43:07;0.80;;;0.38;;
60653;SDS011;46476;53.614;10.048;2022-07-23T05:45:32;2.58;;;0.60;;
60653;SDS011;46476;53.614;10.048;2022-07-23T05:47:57;0.90;;;0.50;;
60653;SDS011;46476;53.614;10.048;2022-07-23T05:50:23;1.35;;;0.68;;
60653;SDS011;46476;53.614;10.048;2022-07-23T05:52:48;1.83;;;0.40;;
60653;SDS011;46476;53.614;10.048;2022-07-23T05:55:14;1.52;;;0.70;;
60653;SDS011;46476;53.614;10.048;2022-07-23T05:57:39;2.95;;;0.60;;
60653;SDS011;46476;53.614;10.048;2022-07-23T06:00:06;1.17;;;0.63;;
60653;SDS011;46476;53.614;10.048;2022-07-23T06:02:34;2.90;;;0.52;;
60653;SDS011;46476;53.614;10.048;2022-07-23T06:04:59;1.30;;;0.60;;
60653;SDS011;46476;53.614;10.048;2022-07-23T06:07:24;1.23;;;0.43;;
60653;SDS011;46476;53.614;10.048;2022-07-23T06:09:50;1.77;;;0.35;;
60653;SDS011;46476;53.614;10.048;2022-07-23T06:12:15;0.50;;;0.30;;
60653;SDS011;46476;53.614;10.048;2022-07-23T06:14:41;1.00;;;0.30;;
60653;SDS011;46476;53.614;10.048;2022-07-23T06:17:07;1.25;;;0.40;;
60653;SDS011;46476;53.614;10.048;2022-07-23T06:19:33;1.65;;;0.47;;
60653;SDS011;46476;53.614;10.048;2022-07-23T06:21:59;1.42;;;0.32;;
60653;SDS011;46476;53.614;10.048;2022-07-23T06:24:24;1.02;;;0.35;;
60653;SDS011;46476;53.614;10.048;2022-07-23T06:26:49;0.88;;;0.30;;
60653;SDS011;46476;53.614;10.048;2022-07-23T06:29:15;0.63;;;0.40;;
60653;SDS011;46476;53.614;10.048;2022-07-23T06:31:40;2.20;;;0.60;;
60653;SDS011;46476;53.614;10.048;2022-07-23T06:34:05;0.57;;;0.40;;
60653;SDS011;46476;53.614;10.048;2022-07-23T06:36:31;1.40;;;0.45;;
60653;SDS011;46476;53.614;10.048;2022-07-23T06:38:56;2.25;;;0.50;;
60653;SDS011;46476;53.614;10.048;2022-07-23T06:41:21;3.03;;;0.70;;
60653;SDS011;46476;53.614;10.048;2022-07-23T06:43:48;0.90;;;0.32;;
60653;SDS011;46476;53.614;10.048;2022-07-23T06:46:13;0.95;;;0.30;;
60653;SDS011;46476;53.614;10.048;2022-07-23T06:48:39;1.20;;;0.40;;
60653;SDS011;46476;53.614;10.048;2022-07-23T06:51:04;1.45;;;0.47;;
60653;SDS011;46476;53.614;10.048;2022-07-23T06:53:30;0.85;;;0.38;;
60653;SDS011;46476;53.614;10.048;2022-07-23T06:55:55;3.45;;;0.50;;
60653;SDS011;46476;53.614;10.048;2022-07-23T06:58:20;1.13;;;0.32;;
60653;SDS011;46476;53.614;10.048;2022-07-23T07:00:46;1.55;;;0.52;;
60653;SDS011;46476;53.614;10.048;2022-07-23T07:03:11;2.92;;;0.70;;
60653;SDS011;46476;53.614;10.048;2022-07-23T07:05:37;0.75;;;0.40;;
60653;SDS011;46476;53.614;10.048;2022-07-23T07:08:02;1.45;;;0.30;;
60653;SDS011;46476;53.614;10.048;2022-07-23T07:10:27;0.95;;;0.40;;
60653;SDS011;46476;53.614;10.048;2022-07-23T07:12:53;0.95;;;0.30;;
60653;SDS011;46476;53.614;10.048;2022-07-23T07:15:18;1.10;;;0.38;;
60653;SDS011;46476;53.614;10.048;2022-07-23T07:17:43;1.15;;;0.30;;
60653;SDS011;46476;53.614;10.048;2022-07-23T07:20:09;0.30;;;0.25;;
60653;SDS011;46476;53.614;10.048;2022-07-23T07:22:35;0.65;;;0.40;;
60653;SDS011;46476;53.614;10.048;2022-07-23T07:25:00;1.73;;;0.50;;
60653;SDS011;46476;53.614;10.048;2022-07-23T07:27:26;1.20;;;0.40;;
60653;SDS011;46476;53.614;10.048;2022-07-23T07:29:51;0.85;;;0.30;;
60653;SDS011;46476;53.614;10.048;2022-07-23T07:32:16;1.10;;;0.30;;
60653;SDS011;46476;53.614;10.048;2022-07-23T07:34:42;1.17;;;0.30;;
60653;SDS011;46476;53.614;10.048;2022-07-23T07:37:07;0.40;;;0.20;;
60653;SDS011;46476;53.614;10.048;2022-07-23T07:39:32;2.10;;;0.30;;
60653;SDS011;46476;53.614;10.048;2022-07-23T07:41:58;0.73;;;0.30;;
60653;SDS011;46476;53.614;10.048;2022-07-23T07:44:23;1.17;;;0.20;;
60653;SDS011;46476;53.614;10.048;2022-07-23T07:46:48;0.98;;;0.38;;
60653;SDS011;46476;53.614;10.048;2022-07-23T07:49:14;2.42;;;0.47;;
60653;SDS011;46476;53.614;10.048;2022-07-23T07:51:39;0.57;;;0.17;;
60653;SDS011;46476;53.614;10.048;2022-07-23T07:54:04;0.25;;;0.20;;
60653;SDS011;46476;53.614;10.048;2022-07-23T07:56:30;0.65;;;0.20;;
60653;SDS011;46476;53.614;10.048;2022-07-23T07:58:55;1.48;;;0.40;;
60653;SDS011;46476;53.614;10.048;2022-07-23T08:01:20;1.05;;;0.20;;
60653;SDS011;46476;53.614;10.048;2022-07-23T08:03:46;0.28;;;0.20;;
60653;SDS011;46476;53.614;10.048;2022-07-23T08:06:11;0.77;;;0.30;;
60653;SDS011;46476;53.614;10.048;2022-07-23T08:08:37;1.27;;;0.40;;
60653;SDS011;46476;53.614;10.048;2022-07-23T08:11:02;0.77;;;0.20;;
60653;SDS011;46476;53.614;10.048;2022-07-23T08:13:27;0.85;;;0.20;;
60653;SDS011;46476;53.614;10.048;2022-07-23T08:15:53;1.83;;;0.38;;
60653;SDS011;46476;53.614;10.048;2022-07-23T08:18:18;0.60;;;0.30;;
60653;SDS011;46476;53.614;10.048;2022-07-23T08:20:44;1.52;;;0.40;;
60653;SDS011;46476;53.614;10.048;2022-07-23T08:23:10;0.60;;;0.30;;
60653;SDS011;46476;53.614;10.048;2022-07-23T08:25:39;0.95;;;0.20;;
60653;SDS011;46476;53.614;10.048;2022-07-23T08:28:07;1.42;;;0.40;;
60653;SDS011;46476;53.614;10.048;2022-07-23T08:30:34;0.85;;;0.30;;
60653;SDS011;46476;53.614;10.048;2022-07-23T08:35:31;1.50;;;0.40;;
60653;SDS011;46476;53.614;10.048;2022-07-23T08:37:58;1.00;;;0.40;;
60653;SDS011;46476;53.614;10.048;2022-07-23T08:40:26;0.98;;;0.30;;
60653;SDS011;46476;53.614;10.048;2022-07-23T08:42:52;0.77;;;0.30;;
60653;SDS011;46476;53.614;10.048;2022-07-23T08:45:19;0.93;;;0.20;;
60653;SDS011;46476;53.614;10.048;2022-07-23T08:47:47;0.32;;;0.30;;
60653;SDS011;46476;53.614;10.048;2022-07-23T08:50:14;0.98;;;0.20;;
60653;SDS011;46476;53.614;10.048;2022-07-23T08:52:40;0.52;;;0.30;;
60653;SDS011;46476;53.614;10.048;2022-07-23T08:55:06;1.23;;;0.20;;
60653;SDS011;46476;53.614;10.048;2022-07-23T08:57:32;1.42;;;0.20;;
60653;SDS011;46476;53.614;10.048;2022-07-23T08:59:57;2.00;;;0.30;;
60653;SDS011;46476;53.614;10.048;2022-07-23T09:02:23;0.52;;;0.20;;
60653;SDS011;46476;53.614;10.048;2022-07-23T09:04:48;0.50;;;0.20;;
60653;SDS011;46476;53.614;10.048;2022-07-23T09:07:13;0.65;;;0.20;;
60653;SDS011;46476;53.614;10.048;2022-07-23T09:09:39;0.20;;;0.20;;
60653;SDS011;46476;53.614;10.048;2022-07-23T09:12:05;0.65;;;0.20;;
60653;SDS011;46476;53.614;10.048;2022-07-23T09:14:44;0.35;;;0.20;;
60653;SDS011;46476;53.614;10.048;2022-07-23T09:17:15;0.20;;;0.13;;
60653;SDS011;46476;53.614;10.048;2022-07-23T09:19:42;0.47;;;0.20;;
60653;SDS011;46476;53.614;10.048;2022-07-23T09:22:21;1.98;;;0.40;;
60653;SDS011;46476;53.614;10.048;2022-07-23T09:25:02;0.55;;;0.20;;
60653;SDS011;46476;53.614;10.048;2022-07-23T09:27:44;0.63;;;0.30;;
60653;SDS011;46476;53.614;10.048;2022-07-23T09:30:17;1.35;;;0.30;;
60653;SDS011;46476;53.614;10.048;2022-07-23T09:32:43;0.82;;;0.30;;
60653;SDS011;46476;53.614;10.048;2022-07-23T09:35:09;0.93;;;0.30;;
60653;SDS011;46476;53.614;10.048;2022-07-23T09:37:34;0.95;;;0.20;;
60653;SDS011;46476;53.614;10.048;2022-07-23T09:40:07;1.58;;;0.25;;
60653;SDS011;46476;53.614;10.048;2022-07-23T09:42:34;0.73;;;0.35;;
60653;SDS011;46476;53.614;10.048;2022-07-23T09:45:00;0.43;;;0.20;;
60653;SDS011;46476;53.614;10.048;2022-07-23T09:47:29;1.33;;;0.30;;
60653;SDS011;46476;53.614;10.048;2022-07-23T09:50:09;1.80;;;0.30;;
60653;SDS011;46476;53.614;10.048;2022-07-23T09:52:47;0.30;;;0.10;;
60653;SDS011;46476;53.614;10.048;2022-07-23T09:55:14;1.38;;;0.50;;
60653;SDS011;46476;53.614;10.048;2022-07-23T09:57:40;0.70;;;0.28;;
60653;SDS011;46476;53.614;10.048;2022-07-23T10:00:08;0.68;;;0.30;;
60653;SDS011;46476;53.614;10.048;2022-07-23T10:02:35;0.60;;;0.17;;
60653;SDS011;46476;53.614;10.048;2022-07-23T10:05:02;1.90;;;0.40;;
60653;SDS011;46476;53.614;10.048;2022-07-23T10:07:28;1.48;;;0.40;;
60653;SDS011;46476;53.614;10.048;2022-07-23T10:09:58;1.42;;;0.20;;
60653;SDS011;46476;53.614;10.048;2022-07-23T10:12:24;0.20;;;0.10;;
60653;SDS011;46476;53.614;10.048;2022-07-23T10:14:53;0.73;;;0.30;;
60653;SDS011;46476;53.614;10.048;2022-07-23T10:17:18;0.93;;;0.38;;
60653;SDS011;46476;53.614;10.048;2022-07-23T10:19:44;1.63;;;0.30;;
60653;SDS011;46476;53.614;10.048;2022-07-23T10:22:13;0.40;;;0.30;;
60653;SDS011;46476;53.614;10.048;2022-07-23T10:37:57;0.63;;;0.25;;
60653;SDS011;46476;53.614;10.048;2022-07-23T10:40:32;0.30;;;0.30;;
60653;SDS011;46476;53.614;10.048;2022-07-23T10:42:58;1.30;;;0.20;;
60653;SDS011;46476;53.614;10.048;2022-07-23T10:45:32;0.70;;;0.28;;
60653;SDS011;46476;53.614;10.048;2022-07-23T10:50:41;0.30;;;0.17;;
60653;SDS011;46476;53.614;10.048;2022-07-23T10:53:12;0.15;;;0.10;;
60653;SDS011;46476;53.614;10.048;2022-07-23T10:55:58;0.50;;;0.30;;
60653;SDS011;46476;53.614;10.048;2022-07-23T11:01:31;0.85;;;0.20;;
60653;SDS011;46476;53.614;10.048;2022-07-23T11:04:01;1.75;;;0.38;;
60653;SDS011;46476;53.614;10.048;2022-07-23T11:17:27;0.30;;;0.20;;
60653;SDS011;46476;53.614;10.048;2022-07-23T11:22:54;2.05;;;0.40;;
60653;SDS011;46476;53.614;10.048;2022-07-23T11:27:46;0.52;;;0.20;;
60653;SDS011;46476;53.614;10.048;2022-07-23T11:30:58;0.82;;;0.30;;
60653;SDS011;46476;53.614;10.048;2022-07-23T11:35:37;1.52;;;0.30;;
60653;SDS011;46476;53.614;10.048;2022-07-23T11:38:21;1.23;;;0.30;;
60653;SDS011;46476;53.614;10.048;2022-07-23T11:40:49;1.80;;;0.30;;
60653;SDS011;46476;53.614;10.048;2022-07-23T11:43:17;0.40;;;0.20;;
60653;SDS011;46476;53.614;10.048;2022-07-23T11:45:47;0.15;;;0.10;;
60653;SDS011;46476;53.614;10.048;2022-07-23T11:48:22;0.20;;;0.15;;
60653;SDS011;46476;53.614;10.048;2022-07-23T11:50:50;0.40;;;0.20;;
60653;SDS011;46476;53.614;10.048;2022-07-23T11:53:26;0.22;;;0.10;;
60653;SDS011;46476;53.614;10.048;2022-07-23T11:56:09;1.25;;;0.35;;
60653;SDS011;46476;53.614;10.048;2022-07-23T11:58:36;0.50;;;0.25;;
60653;SDS011;46476;53.614;10.048;2022-07-23T12:01:03;0.35;;;0.20;;
60653;SDS011;46476;53.614;10.048;2022-07-23T12:03:29;0.93;;;0.22;;
60653;SDS011;46476;53.614;10.048;2022-07-23T12:05:58;1.27;;;0.40;;
60653;SDS011;46476;53.614;10.048;2022-07-23T12:08:24;1.92;;;0.43;;
60653;SDS011;46476;53.614;10.048;2022-07-23T12:10:49;0.52;;;0.30;;
60653;SDS011;46476;53.614;10.048;2022-07-23T12:13:16;1.80;;;0.30;;
60653;SDS011;46476;53.614;10.048;2022-07-23T12:15:44;0.85;;;0.28;;
60653;SDS011;46476;53.614;10.048;2022-07-23T12:18:13;2.30;;;0.50;;
60653;SDS011;46476;53.614;10.048;2022-07-23T12:20:42;0.75;;;0.30;;
60653;SDS011;46476;53.614;10.048;2022-07-23T12:23:10;1.83;;;0.40;;
60653;SDS011;46476;53.614;10.048;2022-07-23T12:25:41;1.05;;;0.30;;
60653;SDS011;46476;53.614;10.048;2022-07-23T12:28:13;0.40;;;0.22;;
60653;SDS011;46476;53.614;10.048;2022-07-23T12:33:14;2.97;;;0.40;;
60653;SDS011;46476;53.614;10.048;2022-07-23T12:35:48;2.63;;;0.40;;
60653;SDS011;46476;53.614;10.048;2022-07-23T12:38:15;2.17;;;0.60;;
60653;SDS011;46476;53.614;10.048;2022-07-23T12:40:43;1.98;;;0.30;;
60653;SDS011;46476;53.614;10.048;2022-07-23T12:43:22;1.73;;;0.20;;
60653;SDS011;46476;53.614;10.048;2022-07-23T12:45:52;2.13;;;0.20;;
60653;SDS011;46476;53.614;10.048;2022-07-23T12:48:27;1.05;;;0.38;;
60653;SDS011;46476;53.614;10.048;2022-07-23T12:51:01;3.25;;;0.40;;
60653;SDS011;46476;53.614;10.048;2022-07-23T12:53:48;2.83;;;0.20;;
60653;SDS011;46476;53.614;10.048;2022-07-23T12:56:16;1.90;;;0.38;;
60653;SDS011;46476;53.614;10.048;2022-07-23T13:01:38;1.27;;;0.40;;
60653;SDS011;46476;53.614;10.048;2022-07-23T13:04:09;0.43;;;0.40;;
60653;SDS011;46476;53.614;10.048;2022-07-23T13:06:46;2.53;;;0.40;;
60653;SDS011;46476;53.614;10.048;2022-07-23T13:09:17;0.75;;;0.28;;
60653;SDS011;46476;53.614;10.048;2022-07-23T13:11:45;1.40;;;0.30;;
60653;SDS011;46476;53.614;10.048;2022-07-23T13:14:11;0.95;;;0.43;;
60653;SDS011;46476;53.614;10.048;2022-07-23T13:16:37;0.82;;;0.40;;
60653;SDS011;46476;53.614;10.048;2022-07-23T13:19:04;0.50;;;0.22;;
60653;SDS011;46476;53.614;10.048;2022-07-23T13:21:31;0.65;;;0.20;;
60653;SDS011;46476;53.614;10.048;2022-07-23T13:23:56;2.30;;;0.40;;
60653;SDS011;46476;53.614;10.048;2022-07-23T13:26:22;0.95;;;0.20;;
60653;SDS011;46476;53.614;10.048;2022-07-23T13:28:47;0.50;;;0.32;;
60653;SDS011;46476;53.614;10.048;2022-07-23T13:31:13;1.45;;;0.50;;
60653;SDS011;46476;53.614;10.048;2022-07-23T13:33:38;1.25;;;0.30;;
60653;SDS011;46476;53.614;10.048;2022-07-23T13:36:04;0.50;;;0.30;;
60653;SDS011;46476;53.614;10.048;2022-07-23T13:38:30;1.30;;;0.30;;
60653;SDS011;46476;53.614;10.048;2022-07-23T13:40:56;1.50;;;0.40;;
60653;SDS011;46476;53.614;10.048;2022-07-23T13:43:22;1.30;;;0.40;;
60653;SDS011;46476;53.614;10.048;2022-07-23T13:45:49;1.05;;;0.38;;
60653;SDS011;46476;53.614;10.048;2022-07-23T13:48:16;1.02;;;0.47;;
60653;SDS011;46476;53.614;10.048;2022-07-23T13:50:43;0.30;;;0.17;;
60653;SDS011;46476;53.614;10.048;2022-07-23T13:53:10;0.88;;;0.40;;
60653;SDS011;46476;53.614;10.048;2022-07-23T13:55:37;1.42;;;0.50;;
60653;SDS011;46476;53.614;10.048;2022-07-23T13:58:04;0.50;;;0.40;;
60653;SDS011;46476;53.614;10.048;2022-07-23T14:00:31;1.02;;;0.50;;
60653;SDS011;46476;53.614;10.048;2022-07-23T14:02:58;1.08;;;0.30;;
60653;SDS011;46476;53.614;10.048;2022-07-23T14:05:24;1.30;;;0.40;;
60653;SDS011;46476;53.614;10.048;2022-07-23T14:07:50;0.68;;;0.40;;
60653;SDS011;46476;53.614;10.048;2022-07-23T14:10:17;0.85;;;0.30;;
60653;SDS011;46476;53.614;10.048;2022-07-23T14:12:44;0.25;;;0.20;;
60653;SDS011;46476;53.614;10.048;2022-07-23T14:15:10;0.75;;;0.30;;
60653;SDS011;46476;53.614;10.048;2022-07-23T14:17:37;0.82;;;0.30;;
60653;SDS011;46476;53.614;10.048;2022-07-23T14:20:04;1.67;;;0.40;;
60653;SDS011;46476;53.614;10.048;2022-07-23T14:22:30;0.75;;;0.40;;
60653;SDS011;46476;53.614;10.048;2022-07-23T14:24:55;0.55;;;0.28;;
60653;SDS011;46476;53.614;10.048;2022-07-23T14:27:23;0.80;;;0.40;;
60653;SDS011;46476;53.614;10.048;2022-07-23T14:29:48;1.02;;;0.30;;
60653;SDS011;46476;53.614;10.048;2022-07-23T14:32:13;0.43;;;0.30;;
60653;SDS011;46476;53.614;10.048;2022-07-23T14:34:39;0.25;;;0.22;;
60653;SDS011;46476;53.614;10.048;2022-07-23T14:37:04;0.60;;;0.40;;
60653;SDS011;46476;53.614;10.048;2022-07-23T14:39:29;1.50;;;0.45;;
60653;SDS011;46476;53.614;10.048;2022-07-23T14:41:55;2.05;;;0.57;;
60653;SDS011;46476;53.614;10.048;2022-07-23T14:44:21;1.83;;;0.47;;
60653;SDS011;46476;53.614;10.048;2022-07-23T14:46:46;0.80;;;0.50;;
60653;SDS011;46476;53.614;10.048;2022-07-23T14:49:12;1.55;;;0.50;;
60653;SDS011;46476;53.614;10.048;2022-07-23T14:51:40;1.65;;;0.60;;
60653;SDS011;46476;53.614;10.048;2022-07-23T14:54:07;1.23;;;0.30;;
60653;SDS011;46476;53.614;10.048;2022-07-23T14:56:32;1.52;;;0.30;;
60653;SDS011;46476;53.614;10.048;2022-07-23T14:58:58;1.20;;;0.30;;
60653;SDS011;46476;53.614;10.048;2022-07-23T15:01:23;0.20;;;0.20;;
60653;SDS011;46476;53.614;10.048;2022-07-23T15:03:49;1.38;;;0.50;;
60653;SDS011;46476;53.614;10.048;2022-07-23T15:06:15;2.78;;;0.52;;
60653;SDS011;46476;53.614;10.048;2022-07-23T15:08:42;1.17;;;0.60;;
60653;SDS011;46476;53.614;10.048;2022-07-23T15:11:07;0.90;;;0.38;;
60653;SDS011;46476;53.614;10.048;2022-07-23T15:13:34;0.93;;;0.60;;
60653;SDS011;46476;53.614;10.048;2022-07-23T15:16:00;2.13;;;0.52;;